KVJI/VJI METAR and TAF weather

Enter ICAO airport designator
Station Type Date Time Source
KVJI METAR 2020/06/05 07:55 UTC NOAA

KVJI 050755Z AUTO 00000KT 2SM BR SCT002 17/17 A2998 RMK AO2 VIS 1/2V4 T01720165


Station Type Date Time Source
KVJI Decoded METAR 2020/06/05 07:55 UTC NOAA

Abingdon, VA, United States (KVJI) 36-41N 082-02W
Jun 05, 2020 - 03:55 AM EDT / 2020.06.05 0755 UTC
Wind: Calm:0
Visibility: 2 mile(s):0
Sky conditions: partly cloudy
Weather: mist
Temperature: 63.0 F (17.2 C)
Dew Point: 61.7 F (16.5 C)
Relative Humidity: 95%
Pressure (altimeter): 29.98 in. Hg (1015 hPa)
ob: KVJI 050755Z AUTO 00000KT 2SM BR SCT002 17/17 A2998 RMK AO2 VIS 1/2V4 T01720165
cycle: 8

Station Type Date Time Source
KVJI TAF UTC NOAA

Error!

Example: see airport list